| time (UTC) | temp F | wind direction | speed knots | gust knots | rain 1hr in | rain 24hr in | rain mn in | humidity % | barometer mb |
| 20260507064503 | 56 | 0 | 0.0 | 0.0 | 0.00 | 0.06 | 0.06 | 99 | 1018.8 |
| 20260507063603 | 56 | 0 | 0.0 | 0.0 | 0.00 | 0.06 | 0.06 | 99 | 1018.2 |
| 20260507062703 | 55 | 0 | 0.0 | 0.0 | 0.00 | 0.06 | 0.06 | 99 | 1017.7 |
| 20260507061803 | 55 | 0 | 0.0 | 0.0 | 0.00 | 0.06 | 0.06 | 99 | 1017.9 |
| 20260507060903 | 56 | 0 | 0.0 | 0.0 | 0.00 | 0.06 | 0.06 | 99 | 1017.9 |
| 20260507060003 | 56 | 0 | 0.0 | 0.0 | 0.00 | 0.06 | 0.06 | 99 | 1017.5 |
| 20260507055403 | 56 | 0 | 0.0 | 0.0 | 0.00 | 0.06 | 0.06 | 99 | 1017.1 |
| 20260507054717 | 56 | 0 | 0.0 | 0.0 | 0.00 | 0.06 | 0.06 | 99 | 1016.7 |
| 20260507053603 | 56 | 0 | 0.0 | 0.0 | 0.00 | 0.06 | 0.06 | 99 | 1016.7 |
| 20260507052703 | 55 | 0 | 0.0 | 0.0 | 0.00 | 0.06 | 0.06 | 99 | 1016.5 |
| 20260507051803 | 55 | 0 | 0.0 | 0.0 | 0.00 | 0.06 | 0.06 | 99 | 1016.5 |
| 20260507050903 | 54 | 0 | 0.0 | 0.0 | 0.00 | 0.06 | 0.06 | 99 | 1016.3 |
| 20260507050003 | 53 | 0 | 0.0 | 0.0 | 0.00 | 0.06 | 0.06 | 99 | 1016.0 |
| 20260507045403 | 53 | 0 | 0.0 | 0.0 | 0.00 | 0.06 | 0.06 | 99 | 1015.8 |
| 20260507044503 | 52 | 0 | 0.0 | 0.0 | 0.00 | 0.06 | 0.06 | 99 | 1015.7 |
| 20260507043603 | 52 | 0 | 0.0 | 0.0 | 0.00 | 0.06 | 0.06 | 99 | 1015.6 |
| 20260507042703 | 52 | 0 | 0.0 | 0.0 | 0.00 | 0.06 | 0.06 | 99 | 1015.7 |
| 20260507041803 | 52 | 0 | 0.0 | 0.0 | 0.00 | 0.06 | 0.06 | 99 | 1015.3 |
| 20260507040903 | 52 | 0 | 0.0 | 0.0 | 0.00 | 0.06 | 0.06 | 99 | 1015.5 |
| 20260507040003 | 52 | 0 | 0.0 | 0.0 | 0.00 | 0.06 | 0.06 | 99 | 1015.2 |
| 20260507035403 | 52 | 0 | 0.0 | 0.0 | 0.00 | 0.06 | 0.06 | 99 | 1015.3 |
| 20260507034503 | 52 | 0 | 0.0 | 0.0 | 0.00 | 0.07 | 0.06 | 99 | 1015.2 |
| 20260507033603 | 52 | 0 | 0.0 | 0.0 | 0.00 | 0.07 | 0.06 | 99 | 1015.5 |
| 20260507032703 | 52 | 0 | 0.0 | 0.0 | 0.00 | 0.07 | 0.06 | 99 | 1015.1 |
| 20260507031803 | 53 | 0 | 0.0 | 0.0 | 0.00 | 0.07 | 0.06 | 99 | 1015.1 |
| 20260507030903 | 53 | 0 | 0.0 | 0.0 | 0.01 | 0.07 | 0.06 | 99 | 1015.0 |
| 20260507030003 | 53 | 0 | 0.0 | 0.0 | 0.01 | 0.07 | 0.06 | 99 | 1015.1 |
| 20260507025618 | 53 | 0 | 0.0 | 0.0 | 0.01 | 0.07 | 0.06 | 99 | 1015.2 |
| 20260507024503 | 53 | 0 | 0.0 | 0.0 | 0.01 | 0.07 | 0.06 | 99 | 1015.2 |
| 20260507023603 | 53 | 0 | 0.0 | 0.0 | 0.01 | 0.07 | 0.06 | 99 | 1015.6 |
| 20260507022703 | 53 | 0 | 0.0 | 0.0 | 0.01 | 0.07 | 0.06 | 99 | 1015.2 |
| 20260507021803 | 53 | 0 | 0.0 | 0.0 | 0.01 | 0.07 | 0.06 | 99 | 1015.3 |
| 20260507020903 | 53 | 0 | 0.0 | 0.0 | 0.01 | 0.06 | 0.05 | 99 | 1015.2 |
| 20260507020217 | 53 | 0 | 0.0 | 0.0 | 0.01 | 0.06 | 0.05 | 99 | 1015.2 |
| 20260507015403 | 53 | 0 | 0.0 | 0.0 | 0.01 | 0.06 | 0.05 | 99 | 1015.3 |
| 20260507014503 | 53 | 0 | 0.0 | 0.0 | 0.01 | 0.06 | 0.05 | 99 | 1014.9 |
| 20260507013603 | 53 | 0 | 0.0 | 0.0 | 0.01 | 0.06 | 0.05 | 99 | 1015.1 |
| 20260507012703 | 53 | 0 | 0.0 | 0.0 | 0.01 | 0.06 | 0.05 | 99 | 1014.9 |
| 20260507011803 | 53 | 0 | 0.0 | 0.0 | 0.01 | 0.06 | 0.05 | 99 | 1015.0 |
| 20260507010003 | 54 | 0 | 0.0 | 0.0 | 0.00 | 0.05 | 0.04 | 99 | 1015.1 |
| 20260507005403 | 54 | 0 | 0.0 | 0.0 | 0.00 | 0.05 | 0.04 | 99 | 1015.2 |
| 20260507004717 | 54 | 0 | 0.0 | 0.0 | 0.00 | 0.05 | 0.04 | 99 | 1015.0 |
| 20260507003603 | 54 | 0 | 0.0 | 0.0 | 0.00 | 0.05 | 0.04 | 99 | 1015.2 |
| 20260507002703 | 54 | 0 | 0.0 | 0.0 | 0.00 | 0.05 | 0.04 | 99 | 1015.0 |
| 20260507001803 | 54 | 0 | 0.0 | 0.0 | 0.00 | 0.05 | 0.04 | 99 | 1015.2 |
| 20260507000903 | 54 | 0 | 0.0 | 0.0 | 0.01 | 0.05 | 0.04 | 99 | 1015.5 |
| 20260507000003 | 54 | 0 | 0.0 | 0.0 | 0.01 | 0.05 | 0.04 | 99 | 1015.2 |
| 20260506235617 | 54 | 0 | 0.0 | 0.0 | 0.02 | 0.05 | 0.04 | 99 | 1015.2 |
| 20260506234503 | 54 | 0 | 0.0 | 0.0 | 0.02 | 0.05 | 0.04 | 99 | 1015.3 |
| 20260506233603 | 54 | 0 | 0.0 | 0.0 | 0.03 | 0.05 | 0.04 | 99 | 1015.5 |
| 20260506232704 | 54 | 0 | 0.0 | 0.0 | 0.03 | 0.05 | 0.04 | 99 | 1015.7 |
| 20260506231803 | 54 | 0 | 0.0 | 0.0 | 0.04 | 0.05 | 0.04 | 99 | 1015.7 |
| 20260506230903 | 54 | 0 | 0.0 | 0.0 | 0.03 | 0.04 | 0.03 | 99 | 1015.7 |
| 20260506230003 | 54 | 0 | 0.0 | 0.0 | 0.03 | 0.04 | 0.03 | 99 | 1015.8 |
| 20260506225617 | 54 | 0 | 0.0 | 0.0 | 0.02 | 0.03 | 0.03 | 99 | 1015.7 |
| 20260506224503 | 54 | 0 | 0.0 | 0.0 | 0.02 | 0.03 | 0.02 | 99 | 1015.9 |
| 20260506223818 | 55 | 0 | 0.0 | 0.0 | 0.02 | 0.03 | 0.02 | 99 | 1016.0 |
| 20260506222703 | 55 | 0 | 0.0 | 0.0 | 0.01 | 0.02 | 0.01 | 99 | 1016.1 |
| 20260506221803 | 56 | 0 | 0.0 | 0.0 | 0.00 | 0.01 | 0.00 | 99 | 1016.0 |
| 20260506220903 | 56 | 0 | 0.0 | 0.0 | 0.00 | 0.01 | 0.00 | 99 | 1016.1 |
| 20260506220004 | 56 | 0 | 0.0 | 0.0 | 0.00 | 0.01 | 0.00 | 99 | 1015.9 |
| 20260506215616 | 56 | 0 | 0.0 | 0.0 | 0.00 | 0.01 | 0.01 | 99 | 1016.0 |
| 20260506214503 | 56 | 0 | 0.0 | 0.0 | 0.00 | 0.01 | 0.01 | 99 | 1015.9 |
| 20260506213603 | 56 | 0 | 0.0 | 0.0 | 0.00 | 0.01 | 0.01 | 99 | 1016.1 |
| 20260506212703 | 56 | 0 | 0.0 | 0.0 | 0.00 | 0.01 | 0.01 | 99 | 1016.2 |
| 20260506212018 | 56 | 0 | 0.0 | 0.0 | 0.00 | 0.01 | 0.01 | 99 | 1015.8 |
| 20260506211117 | 56 | 0 | 0.0 | 0.0 | 0.00 | 0.01 | 0.01 | 99 | 1015.8 |
| 20260506210003 | 56 | 0 | 0.0 | 0.0 | 0.00 | 0.01 | 0.01 | 99 | 1015.9 |
| 20260506205403 | 56 | 0 | 0.0 | 0.0 | 0.00 | 0.01 | 0.01 | 99 | 1015.9 |
| 20260506204503 | 56 | 0 | 0.0 | 0.0 | 0.00 | 0.01 | 0.01 | 99 | 1015.8 |
| 20260506203603 | 56 | 0 | 0.0 | 0.0 | 0.00 | 0.01 | 0.01 | 99 | 1015.6 |
| 20260506202703 | 57 | 0 | 0.0 | 0.0 | 0.00 | 0.01 | 0.01 | 99 | 1015.6 |
| 20260506201803 | 57 | 0 | 0.0 | 0.0 | 0.00 | 0.01 | 0.01 | 99 | 1015.6 |
| 20260506200903 | 57 | 0 | 0.0 | 0.0 | 0.00 | 0.01 | 0.01 | 99 | 1015.7 |
| 20260506200003 | 56 | 0 | 0.0 | 0.0 | 0.00 | 0.01 | 0.01 | 99 | 1015.3 |
| 20260506195403 | 56 | 0 | 0.0 | 0.0 | 0.00 | 0.01 | 0.01 | 99 | 1015.5 |
| 20260506194503 | 56 | 0 | 0.0 | 0.0 | 0.00 | 0.01 | 0.01 | 99 | 1015.3 |
| 20260506193603 | 56 | 0 | 0.0 | 0.0 | 0.00 | 0.01 | 0.01 | 99 | 1015.2 |
| 20260506192703 | 56 | 0 | 0.0 | 0.0 | 0.00 | 0.01 | 0.01 | 99 | 1015.1 |
| 20260506191803 | 56 | 0 | 0.0 | 0.0 | 0.00 | 0.01 | 0.01 | 99 | 1015.2 |
| 20260506190903 | 56 | 0 | 0.0 | 0.0 | 0.00 | 0.01 | 0.01 | 99 | 1015.2 |
| 20260506190005 | 56 | 0 | 0.0 | 0.0 | 0.00 | 0.01 | 0.01 | 99 | 1015.2 |
| 20260506185403 | 56 | 0 | 0.0 | 0.0 | 0.00 | 0.01 | 0.01 | 99 | 1015.3 |
| 20260506184503 | 56 | 0 | 0.0 | 0.0 | 0.00 | 0.01 | 0.01 | 99 | 1014.9 |
| 20260506183603 | 56 | 0 | 0.0 | 0.0 | 0.00 | 0.01 | 0.01 | 99 | 1015.2 |
| 20260506182703 | 56 | 0 | 0.0 | 0.0 | 0.00 | 0.01 | 0.01 | 99 | 1015.0 |
| 20260506182017 | 56 | 0 | 0.0 | 0.0 | 0.00 | 0.01 | 0.01 | 99 | 1015.1 |
| 20260506181118 | 57 | 0 | 0.0 | 0.0 | 0.00 | 0.01 | 0.01 | 99 | 1015.0 |
| 20260506180004 | 58 | 0 | 0.0 | 0.0 | 0.00 | 0.01 | 0.01 | 99 | 1015.2 |
| 20260506175403 | 58 | 0 | 0.0 | 0.0 | 0.00 | 0.01 | 0.01 | 99 | 1015.1 |
| 20260506174503 | 59 | 0 | 0.0 | 0.0 | 0.00 | 0.01 | 0.01 | 99 | 1014.8 |
| 20260506173818 | 59 | 0 | 0.0 | 0.0 | 0.00 | 0.01 | 0.01 | 99 | 1015.2 |
| 20260506172703 | 59 | 0 | 0.0 | 0.0 | 0.00 | 0.01 | 0.01 | 99 | 1015.2 |
| 20260506171803 | 59 | 0 | 0.0 | 0.0 | 0.00 | 0.01 | 0.01 | 99 | 1015.0 |
| 20260506170903 | 59 | 0 | 0.0 | 0.0 | 0.00 | 0.01 | 0.01 | 99 | 1015.1 |
| 20260506170004 | 59 | 0 | 0.0 | 0.0 | 0.00 | 0.01 | 0.01 | 99 | 1015.1 |
| 20260506165403 | 59 | 0 | 0.0 | 0.0 | 0.00 | 0.01 | 0.01 | 99 | 1015.1 |
| 20260506164503 | 59 | 0 | 0.0 | 0.0 | 0.00 | 0.01 | 0.01 | 99 | 1015.2 |
| 20260506163603 | 59 | 0 | 0.0 | 0.0 | 0.00 | 0.01 | 0.01 | 99 | 1015.1 |
| 20260506162703 | 59 | 0 | 0.0 | 0.0 | 0.00 | 0.01 | 0.01 | 99 | 1015.2 |
| 20260506161803 | 59 | 0 | 0.0 | 0.0 | 0.00 | 0.01 | 0.01 | 99 | 1015.6 |
| 20260506161117 | 60 | 0 | 0.0 | 0.0 | 0.00 | 0.01 | 0.01 | 99 | 1015.3 |
| 20260506160003 | 60 | 0 | 0.0 | 0.0 | 0.00 | 0.01 | 0.01 | 99 | 1015.5 |
| 20260506155403 | 60 | 0 | 0.0 | 0.0 | 0.00 | 0.01 | 0.01 | 99 | 1015.3 |
| 20260506154503 | 61 | 0 | 0.0 | 0.0 | 0.00 | 0.01 | 0.01 | 99 | 1015.5 |
| 20260506153603 | 61 | 0 | 0.0 | 0.0 | 0.00 | 0.01 | 0.01 | 99 | 1015.6 |
| 20260506152703 | 61 | 0 | 0.0 | 0.0 | 0.00 | 0.01 | 0.01 | 99 | 1015.8 |
| 20260506151803 | 61 | 0 | 0.0 | 0.0 | 0.00 | 0.01 | 0.01 | 99 | 1015.6 |
| 20260506151117 | 62 | 0 | 0.0 | 0.0 | 0.00 | 0.01 | 0.01 | 99 | 1015.2 |
| 20260506150218 | 62 | 0 | 0.0 | 0.0 | 0.00 | 0.01 | 0.01 | 99 | 1015.9 |
| 20260506145403 | 62 | 0 | 0.0 | 0.0 | 0.00 | 0.01 | 0.01 | 99 | 1015.7 |
| 20260506144503 | 62 | 0 | 0.0 | 0.0 | 0.00 | 0.01 | 0.01 | 99 | 1015.7 |
| 20260506143603 | 62 | 0 | 0.0 | 0.0 | 0.00 | 0.01 | 0.01 | 99 | 1015.7 |
| 20260506142703 | 62 | 0 | 0.0 | 0.0 | 0.00 | 0.01 | 0.01 | 99 | 1015.7 |
| 20260506141803 | 62 | 0 | 0.0 | 0.0 | 0.00 | 0.01 | 0.01 | 99 | 1015.7 |
| 20260506140903 | 62 | 0 | 0.0 | 0.0 | 0.00 | 0.01 | 0.01 | 99 | 1015.6 |
| 20260506140004 | 61 | 0 | 0.0 | 0.0 | 0.00 | 0.01 | 0.01 | 99 | 1015.3 |
| 20260506135618 | 62 | 0 | 0.0 | 0.0 | 0.00 | 0.01 | 0.01 | 99 | 1015.7 |
| 20260506134503 | 62 | 0 | 0.0 | 0.0 | 0.00 | 0.01 | 0.01 | 99 | 1015.8 |
| 20260506133603 | 62 | 0 | 0.0 | 0.0 | 0.00 | 0.01 | 0.01 | 99 | 1016.1 |
| 20260506132703 | 62 | 0 | 0.0 | 0.0 | 0.00 | 0.01 | 0.01 | 99 | 1016.4 |
| 20260506131803 | 62 | 0 | 0.0 | 0.0 | 0.00 | 0.01 | 0.01 | 99 | 1016.7 |
| 20260506131118 | 64 | 0 | 0.0 | 0.0 | 0.00 | 0.01 | 0.01 | 99 | 1017.3 |
| 20260506130003 | 63 | 0 | 0.0 | 0.0 | 0.00 | 0.01 | 0.01 | 99 | 1017.5 |
| 20260506125403 | 63 | 0 | 0.0 | 0.0 | 0.00 | 0.01 | 0.01 | 99 | 1017.0 |
| 20260506124503 | 62 | 0 | 0.0 | 0.0 | 0.00 | 0.01 | 0.01 | 99 | 1016.8 |
| 20260506123604 | 63 | 0 | 0.0 | 0.0 | 0.00 | 0.01 | 0.01 | 99 | 1017.6 |
| 20260506122703 | 63 | 0 | 0.0 | 0.0 | 0.00 | 0.01 | 0.01 | 99 | 1017.0 |
| 20260506121803 | 63 | 0 | 0.0 | 0.0 | 0.00 | 0.01 | 0.01 | 99 | 1017.3 |
| 20260506120904 | 63 | 0 | 0.0 | 0.0 | 0.00 | 0.01 | 0.01 | 99 | 1017.3 |
| 20260506120003 | 63 | 0 | 0.0 | 0.0 | 0.00 | 0.01 | 0.01 | 99 | 1017.6 |
| 20260506115403 | 62 | 0 | 0.0 | 0.0 | 0.00 | 0.01 | 0.01 | 99 | 1017.3 |
| 20260506114718 | 62 | 0 | 0.0 | 0.0 | 0.00 | 0.01 | 0.01 | 99 | 1016.8 |
| 20260506113818 | 62 | 0 | 0.0 | 0.0 | 0.00 | 0.01 | 0.01 | 99 | 1017.0 |
| 20260506112703 | 63 | 0 | 0.0 | 0.0 | 0.00 | 0.01 | 0.01 | 99 | 1017.0 |
| 20260506112018 | 62 | 0 | 0.0 | 0.0 | 0.00 | 0.01 | 0.01 | 99 | 1017.5 |
| 20260506110903 | 63 | 0 | 0.0 | 0.0 | 0.00 | 0.01 | 0.01 | 99 | 1017.5 |
| 20260506110217 | 63 | 0 | 0.0 | 0.0 | 0.00 | 0.01 | 0.01 | 99 | 1017.5 |
| 20260506105616 | 62 | 0 | 0.0 | 0.0 | 0.00 | 0.01 | 0.01 | 99 | 1016.9 |
| 20260506104503 | 63 | 0 | 0.0 | 0.0 | 0.00 | 0.01 | 0.01 | 99 | 1017.3 |
| 20260506103603 | 63 | 0 | 0.0 | 0.0 | 0.00 | 0.01 | 0.01 | 99 | 1017.6 |
| 20260506102703 | 62 | 0 | 0.0 | 0.0 | 0.00 | 0.01 | 0.01 | 99 | 1017.1 |
| 20260506101803 | 62 | 0 | 0.0 | 0.0 | 0.00 | 0.01 | 0.01 | 99 | 1017.1 |
| 20260506100903 | 61 | 0 | 0.0 | 0.0 | 0.00 | 0.01 | 0.01 | 99 | 1016.8 |
| 20260506100004 | 61 | 0 | 0.0 | 0.0 | 0.00 | 0.01 | 0.01 | 99 | 1016.7 |
| 20260506095403 | 61 | 0 | 0.0 | 0.0 | 0.00 | 0.01 | 0.01 | 99 | 1016.5 |
| 20260506094503 | 61 | 0 | 0.0 | 0.0 | 0.00 | 0.01 | 0.01 | 99 | 1016.6 |
| 20260506093603 | 61 | 0 | 0.0 | 0.0 | 0.00 | 0.04 | 0.01 | 99 | 1016.7 |
| 20260506092703 | 60 | 0 | 0.0 | 0.0 | 0.00 | 0.04 | 0.01 | 99 | 1016.8 |
| 20260506091803 | 59 | 0 | 0.0 | 0.0 | 0.00 | 0.04 | 0.01 | 99 | 1016.5 |
| 20260506090903 | 59 | 0 | 0.0 | 0.0 | 0.00 | 0.04 | 0.01 | 99 | 1016.3 |
| 20260506090003 | 59 | 0 | 0.0 | 0.0 | 0.00 | 0.04 | 0.01 | 99 | 1016.4 |
| 20260506085403 | 59 | 0 | 0.0 | 0.0 | 0.00 | 0.04 | 0.01 | 99 | 1016.6 |
| 20260506084503 | 59 | 0 | 0.0 | 0.0 | 0.00 | 0.04 | 0.01 | 99 | 1016.4 |
| 20260506083816 | 59 | 0 | 0.0 | 0.0 | 0.00 | 0.04 | 0.01 | 99 | 1016.6 |
| 20260506082918 | 59 | 0 | 0.0 | 0.0 | 0.00 | 0.04 | 0.01 | 99 | 1016.9 |
| 20260506081803 | 58 | 0 | 0.0 | 0.0 | 0.00 | 0.04 | 0.01 | 99 | 1016.0 |
| 20260506080903 | 59 | 0 | 0.0 | 0.0 | 0.00 | 0.04 | 0.01 | 99 | 1015.9 |
| 20260506072703 | 59 | 0 | 0.0 | 0.0 | 0.00 | 0.04 | 0.01 | 99 | 1016.6 |
| 20260506071803 | 58 | 0 | 0.0 | 0.0 | 0.00 | 0.04 | 0.01 | 99 | 1016.3 |
| 20260506070903 | 58 | 0 | 0.0 | 0.0 | 0.00 | 0.04 | 0.01 | 99 | 1016.5 |